Time;durP1;ratioP1;P1;durP2;ratioP2;P2;SDS_P1;SDS_P2;PMS_P1;PMS_P2;Temp;Humidity;BMP_temperature;BMP_pressure;BME280_temperature;BME280_humidity;BME280_pressure;Samples;Min_cycle;Max_cycle;Signal;HPM_P1;HPM_P2
2022/01/26 00:06:31;;;;;;;60.15;31.63;;;-0.80;96.00;;;;;;5000404;28;20395;-70
2022/01/26 00:08:57;;;;;;;39.35;24.25;;;-0.80;96.80;;;;;;5000924;28;20046;-71
2022/01/26 00:11:23;;;;;;;35.63;20.50;;;-0.80;96.40;;;;;;5001493;28;20022;-71
2022/01/26 00:13:50;;;;;;;33.00;20.50;;;-0.90;96.70;;;;;;5001240;28;20441;-71
2022/01/26 00:16:26;;;;;;;30.23;17.83;;;-0.90;96.80;;;;;;4999185;28;20037;-71
2022/01/26 00:18:54;;;;;;;30.25;18.95;;;-0.80;96.90;;;;;;4998775;28;20038;-71
2022/01/26 00:21:36;;;;;;;30.67;19.55;;;-0.80;96.40;;;;;;5000963;28;20035;-71
2022/01/26 00:29:30;;;;;;;;;;;-0.70;96.90;;;;;;4999944;28;20030;-70
2022/01/26 00:40:41;;;;;;;35.65;20.65;;;-0.80;95.70;;;;;;5002186;28;20041;-71
2022/01/26 00:43:20;;;;;;;35.60;21.73;;;-1.00;96.20;;;;;;5001871;28;20401;-71
2022/01/26 00:45:49;;;;;;;31.35;18.95;;;-1.00;96.50;;;;;;4998734;28;20472;-71
2022/01/26 00:48:19;;;;;;;30.90;18.63;;;-1.00;96.40;;;;;;5001452;28;20125;-70
2022/01/26 00:50:50;;;;;;;35.80;19.90;;;-1.10;96.10;;;;;;4999415;28;20034;-71
2022/01/26 00:53:16;;;;;;;34.33;21.13;;;-1.10;96.00;;;;;;5000832;28;20166;-71
2022/01/26 00:55:42;;;;;;;37.28;21.50;;;-1.30;96.10;;;;;;4995177;28;20468;-70
2022/01/26 00:58:08;;;;;;;34.67;19.63;;;-1.30;96.40;;;;;;5000546;28;20438;-70
2022/01/26 01:00:33;;;;;;;32.58;19.83;;;-1.30;96.50;;;;;;4998069;28;20101;-70
2022/01/26 01:03:01;;;;;;;31.52;19.80;;;-1.30;96.50;;;;;;5001834;28;20037;-70
2022/01/26 01:05:35;;;;;;;35.75;21.80;;;-1.30;96.50;;;;;;4997010;28;20026;-70
2022/01/26 01:08:09;;;;;;;34.65;20.33;;;-1.30;96.70;;;;;;5014356;28;20658;-70
2022/01/26 01:10:39;;;;;;;38.28;22.75;;;-1.30;96.80;;;;;;4998862;28;20642;-70
2022/01/26 01:13:08;;;;;;;39.97;23.85;;;-1.20;97.00;;;;;;4999660;28;20036;-70
2022/01/26 01:15:34;;;;;;;36.05;22.08;;;-1.10;97.10;;;;;;4997443;28;20485;-70
2022/01/26 01:31:51;;;;;;;51.78;29.52;;;-1.30;98.20;;;;;;5002239;28;20050;-70
2022/01/26 01:34:27;;;;;;;46.67;26.77;;;-1.20;98.10;;;;;;5003608;28;20021;-70
2022/01/26 01:36:54;;;;;;;42.65;24.30;;;-1.00;98.20;;;;;;5001878;28;20022;-71
2022/01/26 01:39:21;;;;;;;36.58;22.15;;;-1.00;97.80;;;;;;5005556;28;20036;-71
2022/01/26 01:41:49;;;;;;;36.97;21.42;;;-1.00;97.90;;;;;;5005004;28;20509;-70
2022/01/26 01:44:16;;;;;;;35.85;22.05;;;-0.90;97.90;;;;;;5002322;28;20030;-70
2022/01/26 01:46:42;;;;;;;34.38;21.15;;;-0.90;97.90;;;;;;5006383;28;20048;-70
2022/01/26 01:49:10;;;;;;;37.55;22.92;;;-0.90;97.90;;;;;;5004328;28;20030;-71
2022/01/26 01:51:44;;;;;;;36.13;22.48;;;-0.80;97.90;;;;;;5003459;28;20425;-70
2022/01/26 01:54:14;;;;;;;42.17;25.42;;;-0.90;98.10;;;;;;5002319;28;20639;-71
2022/01/26 01:56:51;;;;;;;42.70;24.67;;;-0.80;98.40;;;;;;5007393;28;20058;-70
2022/01/26 01:59:17;;;;;;;46.15;24.75;;;-0.70;98.40;;;;;;5001667;28;20117;-71
2022/01/26 02:01:43;;;;;;;41.78;24.42;;;-0.70;98.10;;;;;;5002346;28;20611;-71
2022/01/26 02:04:08;;;;;;;42.25;24.15;;;-0.60;98.00;;;;;;5005743;28;20071;-70
2022/01/26 02:06:34;;;;;;;39.15;24.88;;;-0.60;98.20;;;;;;5005291;28;20053;-69
2022/01/26 02:09:00;;;;;;;43.25;26.00;;;-0.60;98.00;;;;;;5003752;28;20095;-70
2022/01/26 02:11:26;;;;;;;42.55;25.58;;;-0.90;98.10;;;;;;5004119;28;20879;-71
2022/01/26 02:14:02;;;;;;;35.85;22.33;;;-0.80;98.30;;;;;;5002711;28;20033;-71
2022/01/26 02:54:36;;;;;;;38.55;23.10;;;-1.00;97.10;;;;;;5001150;28;20034;-71
2022/01/26 03:02:31;;;;;;;43.97;24.60;;;-1.10;96.90;;;;;;4980607;28;20129;-70
2022/01/26 03:05:00;;;;;;;44.35;25.15;;;-1.20;96.80;;;;;;5003365;28;20038;-71
2022/01/26 03:07:40;;;;;;;42.08;25.67;;;-1.30;96.80;;;;;;5005166;28;20042;-70
2022/01/26 03:10:22;;;;;;;51.03;26.67;;;-1.20;97.00;;;;;;5002029;28;20062;-71
2022/01/26 03:12:54;;;;;;;61.35;28.77;;;-1.20;97.40;;;;;;5000560;28;20038;-71
2022/01/26 03:15:26;;;;;;;55.28;29.20;;;-1.20;97.60;;;;;;5004020;28;20029;-70
2022/01/26 03:20:23;;;;;;;;;;;-1.10;98.50;;;;;;5002268;28;20781;-71
2022/01/26 03:28:22;;;;;;;63.90;28.17;;;-1.30;98.90;;;;;;5002438;28;20081;-71
2022/01/26 03:31:17;;;;;;;47.97;27.63;;;-1.30;99.50;;;;;;4999979;28;20100;-70
2022/01/26 03:36:20;;;;;;;56.30;29.60;;;-1.30;99.70;;;;;;5004183;28;20120;-71
2022/01/26 03:38:50;;;;;;;54.30;28.25;;;-1.40;99.90;;;;;;5001866;28;20053;-71
2022/01/26 03:44:00;;;;;;;52.05;29.30;;;-1.30;99.90;;;;;;5001341;28;20506;-71
2022/01/26 03:46:26;;;;;;;55.53;30.63;;;-1.20;99.90;;;;;;5001674;28;20042;-70
2022/01/26 03:48:52;;;;;;;55.53;29.38;;;-1.20;99.90;;;;;;5000009;28;20633;-71
2022/01/26 03:51:18;;;;;;;55.75;29.38;;;-1.20;99.90;;;;;;5000533;28;20042;-71
2022/01/26 03:53:44;;;;;;;57.33;30.45;;;-1.10;99.90;;;;;;5001117;28;20045;-71
2022/01/26 03:56:09;;;;;;;58.97;31.55;;;-1.10;99.90;;;;;;5002466;28;20064;-71
2022/01/26 03:58:35;;;;;;;64.00;31.45;;;-1.00;99.90;;;;;;4999580;28;20588;-71
2022/01/26 04:01:00;;;;;;;58.72;31.05;;;-1.00;99.90;;;;;;5002345;28;20427;-71
2022/01/26 04:03:26;;;;;;;70.25;31.98;;;-1.00;99.90;;;;;;5001373;28;20104;-71
2022/01/26 04:05:52;;;;;;;70.32;33.38;;;-1.00;99.90;;;;;;5003059;28;20112;-71
2022/01/26 04:08:24;;;;;;;95.78;34.25;;;-1.00;99.90;;;;;;4998584;28;20097;-71
2022/01/26 04:13:21;;;;;;;78.63;33.33;;;-1.00;99.90;;;;;;5001995;28;20048;-72
2022/01/26 04:15:47;;;;;;;63.75;31.65;;;-0.90;99.90;;;;;;5000559;28;20035;-71
2022/01/26 04:18:18;;;;;;;102.38;34.10;;;-0.90;99.90;;;;;;5000499;28;20030;-71
2022/01/26 04:20:48;;;;;;;73.40;32.17;;;-0.90;99.90;;;;;;5000330;28;20041;-71
2022/01/26 04:23:23;;;;;;;61.40;32.42;;;-0.90;99.90;;;;;;5000908;28;20018;-71
2022/01/26 04:25:50;;;;;;;55.40;31.45;;;-0.90;99.90;;;;;;5001099;28;20038;-71
2022/01/26 04:28:23;;;;;;;69.35;31.63;;;-0.90;99.90;;;;;;5002126;28;20027;-70
2022/01/26 04:30:48;;;;;;;52.95;30.13;;;-0.90;99.90;;;;;;4999490;28;20033;-71
2022/01/26 04:33:15;;;;;;;54.45;29.85;;;-0.90;99.90;;;;;;5001504;28;20447;-71
2022/01/26 04:35:44;;;;;;;49.17;28.25;;;-0.90;99.90;;;;;;4999540;28;20033;-71
2022/01/26 04:38:24;;;;;;;44.05;26.95;;;-0.90;99.90;;;;;;5000668;28;21070;-71
2022/01/26 04:43:52;;;;;;;49.88;26.95;;;-0.90;99.90;;;;;;4989801;28;20476;-70
2022/01/26 04:46:17;;;;;;;62.35;29.83;;;-0.90;99.90;;;;;;5000749;28;20080;-70
2022/01/26 04:48:43;;;;;;;49.40;28.30;;;-0.90;99.90;;;;;;4999598;28;20048;-71
2022/01/26 04:51:09;;;;;;;53.72;28.83;;;-0.90;99.90;;;;;;5001618;28;20022;-71
2022/01/26 04:53:35;;;;;;;58.50;27.45;;;-0.90;99.90;;;;;;4998912;28;20029;-71
2022/01/26 04:56:00;;;;;;;56.40;28.98;;;-0.90;99.90;;;;;;5000380;28;20054;-70
2022/01/26 04:58:26;;;;;;;53.30;28.38;;;-0.90;99.90;;;;;;5002164;28;20037;-71
2022/01/26 05:00:51;;;;;;;52.58;26.92;;;-1.00;99.90;;;;;;4999565;28;20026;-71
2022/01/26 05:03:17;;;;;;;52.92;28.70;;;-0.90;99.90;;;;;;5000203;28;20022;-71
2022/01/26 05:05:43;;;;;;;54.97;29.42;;;-0.90;99.90;;;;;;4999154;28;20042;-72
2022/01/26 05:08:09;;;;;;;54.60;30.20;;;-0.90;99.90;;;;;;5000824;28;20411;-72
2022/01/26 05:10:37;;;;;;;48.17;27.98;;;-0.90;99.90;;;;;;5000463;28;20112;-71
2022/01/26 05:13:03;;;;;;;48.53;27.48;;;-0.90;99.80;;;;;;5001884;28;20051;-72
2022/01/26 05:15:29;;;;;;;47.90;27.17;;;-0.90;99.80;;;;;;5001297;28;20034;-71
2022/01/26 05:17:54;;;;;;;54.28;28.75;;;-0.90;99.80;;;;;;5003451;28;20367;-71
2022/01/26 05:20:20;;;;;;;55.30;27.65;;;-0.90;99.80;;;;;;5000375;28;20489;-71
2022/01/26 05:22:46;;;;;;;44.95;25.63;;;-1.00;99.90;;;;;;5002840;28;20034;-72
2022/01/26 05:25:12;;;;;;;54.75;29.38;;;-1.00;99.90;;;;;;4998640;28;20113;-71
2022/01/26 05:27:38;;;;;;;51.65;28.33;;;-0.90;99.90;;;;;;5004000;28;20030;-71
2022/01/26 05:30:05;;;;;;;56.83;30.05;;;-0.90;99.90;;;;;;4999685;28;20069;-71
2022/01/26 05:32:31;;;;;;;50.17;27.58;;;-1.00;99.90;;;;;;4999270;28;20754;-71
2022/01/26 05:34:57;;;;;;;55.08;30.05;;;-1.00;99.90;;;;;;4996673;28;20069;-71
2022/01/26 05:37:23;;;;;;;53.33;28.67;;;-1.00;99.90;;;;;;5002367;28;20104;-73
2022/01/26 05:39:49;;;;;;;55.92;29.88;;;-1.00;99.90;;;;;;5000905;28;20157;-72
2022/01/26 05:42:16;;;;;;;51.95;28.85;;;-1.00;99.90;;;;;;5000233;28;20038;-72
2022/01/26 05:44:45;;;;;;;55.78;27.95;;;-1.00;99.90;;;;;;5000458;28;20120;-72
2022/01/26 05:47:16;;;;;;;49.00;27.05;;;-0.90;99.90;;;;;;4999765;28;20689;-72
2022/01/26 05:49:42;;;;;;;57.47;30.57;;;-0.80;99.90;;;;;;5003032;28;20104;-72
2022/01/26 05:52:07;;;;;;;59.28;29.67;;;-0.80;99.90;;;;;;4998692;28;20402;-72
2022/01/26 05:54:33;;;;;;;67.20;31.50;;;-0.90;99.90;;;;;;5001490;28;20040;-72
2022/01/26 05:56:59;;;;;;;59.22;30.58;;;-0.90;99.90;;;;;;5003884;28;20552;-73
2022/01/26 05:59:24;;;;;;;66.10;32.30;;;-0.90;99.90;;;;;;4998859;28;20034;-72
2022/01/26 06:01:51;;;;;;;67.97;31.95;;;-0.80;99.90;;;;;;5001085;28;20022;-72
2022/01/26 06:04:18;;;;;;;88.45;32.72;;;-0.90;99.90;;;;;;5001118;28;20033;-72
2022/01/26 06:06:44;;;;;;;66.72;31.23;;;-1.00;99.90;;;;;;4997051;28;20034;-72
2022/01/26 06:09:10;;;;;;;76.57;32.35;;;-1.20;99.90;;;;;;5000677;28;20079;-71
2022/01/26 06:11:35;;;;;;;83.90;32.13;;;-1.20;99.90;;;;;;4999182;28;20038;-72
2022/01/26 06:14:01;;;;;;;144.48;30.27;;;-1.10;99.90;;;;;;4996925;28;20036;-70
2022/01/26 06:16:27;;;;;;;89.53;30.70;;;-1.10;99.90;;;;;;5001592;28;20113;-71
2022/01/26 06:18:52;;;;;;;101.53;29.75;;;-1.30;99.90;;;;;;5005712;28;20041;-71
2022/01/26 06:21:18;;;;;;;116.13;30.45;;;-1.20;99.90;;;;;;5002858;28;20030;-71
2022/01/26 06:23:43;;;;;;;103.63;30.98;;;-1.30;99.90;;;;;;5003736;28;20022;-72
2022/01/26 06:26:09;;;;;;;75.25;31.35;;;-1.30;99.90;;;;;;5002613;28;20388;-72
2022/01/26 06:28:35;;;;;;;88.00;30.45;;;-1.20;99.90;;;;;;5004150;28;20022;-72
2022/01/26 06:31:06;;;;;;;67.95;30.77;;;-1.30;99.90;;;;;;5002192;28;20538;-69
2022/01/26 06:33:35;;;;;;;65.93;30.20;;;-1.20;99.90;;;;;;5005704;28;20026;-71
2022/01/26 06:36:03;;;;;;;70.43;30.38;;;-1.10;99.90;;;;;;5005072;28;20378;-71
2022/01/26 06:38:30;;;;;;;63.72;30.05;;;-1.10;99.90;;;;;;5005320;28;20021;-71
2022/01/26 06:40:58;;;;;;;58.63;31.15;;;-0.90;99.90;;;;;;5001250;28;20116;-70
2022/01/26 06:43:27;;;;;;;127.32;48.50;;;-0.90;99.90;;;;;;5000707;28;20096;-71
2022/01/26 06:46:03;;;;;;;81.65;40.10;;;-0.80;99.90;;;;;;5002179;28;20156;-71
2022/01/26 06:51:00;;;;;;;98.07;33.30;;;-1.10;99.90;;;;;;5005123;28;20113;-70
2022/01/26 06:53:26;;;;;;;75.00;31.48;;;-1.20;99.90;;;;;;5003038;28;20149;-70
2022/01/26 06:55:52;;;;;;;175.82;49.47;;;-1.30;99.90;;;;;;5001780;28;20058;-71
2022/01/26 06:58:18;;;;;;;111.18;50.80;;;-1.40;99.90;;;;;;5001964;28;20555;-70
2022/01/26 07:00:44;;;;;;;112.38;43.50;;;-1.50;99.90;;;;;;5003284;28;20443;-69
2022/01/26 07:03:09;;;;;;;89.70;45.50;;;-1.50;99.90;;;;;;5003584;28;20116;-71
2022/01/26 07:05:35;;;;;;;99.18;43.38;;;-1.40;99.90;;;;;;5003758;28;20510;-70
2022/01/26 07:08:02;;;;;;;86.13;38.65;;;-1.40;99.90;;;;;;5001402;28;20569;-70
2022/01/26 07:10:28;;;;;;;94.95;42.08;;;-1.30;99.90;;;;;;5000978;28;20114;-70
2022/01/26 07:12:54;;;;;;;147.40;37.95;;;-1.50;99.90;;;;;;5003130;28;20513;-71
2022/01/26 07:23:28;;;;;;;94.75;37.33;;;-1.30;99.90;;;;;;5001869;28;20064;-71
2022/01/26 07:25:54;;;;;;;89.57;38.75;;;-1.20;99.90;;;;;;5004569;28;20683;-71
2022/01/26 07:28:19;;;;;;;76.38;38.47;;;-1.10;99.90;;;;;;5003030;28;20087;-70
2022/01/26 07:30:45;;;;;;;101.72;45.42;;;-1.00;99.90;;;;;;5006095;28;20026;-71
2022/01/26 07:33:11;;;;;;;104.60;48.70;;;-0.90;99.90;;;;;;5002445;28;20054;-71
2022/01/26 07:35:37;;;;;;;106.95;52.85;;;-0.80;99.90;;;;;;5006428;28;20378;-71
2022/01/26 07:38:04;;;;;;;110.30;51.78;;;-0.70;99.90;;;;;;5002793;28;20031;-71
2022/01/26 07:40:30;;;;;;;110.50;52.97;;;-0.60;99.90;;;;;;5005362;28;20460;-70
2022/01/26 07:42:56;;;;;;;100.00;49.92;;;-0.60;99.90;;;;;;5002017;28;20491;-70
2022/01/26 07:45:22;;;;;;;100.95;51.97;;;-0.40;99.90;;;;;;5003414;28;20038;-70
2022/01/26 07:47:51;;;;;;;104.72;53.25;;;-0.30;99.90;;;;;;5003143;28;20042;-70
2022/01/26 07:50:17;;;;;;;108.65;51.28;;;-0.30;99.90;;;;;;5003833;28;20035;-71
2022/01/26 07:52:43;;;;;;;110.32;54.92;;;-0.30;99.90;;;;;;5003494;28;20114;-70
2022/01/26 07:55:14;;;;;;;118.88;55.63;;;-0.20;99.90;;;;;;5001683;28;20144;-71
2022/01/26 07:57:40;;;;;;;120.77;57.37;;;-0.30;99.90;;;;;;5001757;28;20029;-69
2022/01/26 08:00:07;;;;;;;126.82;59.00;;;-0.30;99.90;;;;;;4999507;28;20065;-70
2022/01/26 08:02:32;;;;;;;109.25;52.25;;;-0.50;99.90;;;;;;5004101;28;20636;-70
2022/01/26 08:04:58;;;;;;;109.95;51.90;;;-0.60;99.90;;;;;;5001026;28;20033;-70
2022/01/26 08:07:24;;;;;;;110.38;53.47;;;-0.60;99.90;;;;;;5001169;28;20053;-71
2022/01/26 08:09:49;;;;;;;102.40;51.83;;;-0.60;99.90;;;;;;4999777;28;20109;-70
2022/01/26 08:12:16;;;;;;;104.82;51.75;;;-0.40;99.90;;;;;;4998923;28;20069;-68
2022/01/26 08:14:42;;;;;;;96.78;48.30;;;-0.50;99.90;;;;;;5002906;28;20030;-70
2022/01/26 08:17:09;;;;;;;89.47;45.30;;;-0.40;99.90;;;;;;5001729;28;20042;-70
2022/01/26 08:19:35;;;;;;;87.65;44.63;;;-0.60;99.90;;;;;;4996775;28;20527;-70
2022/01/26 08:22:02;;;;;;;80.05;41.83;;;-0.50;99.90;;;;;;5000707;28;20034;-70
2022/01/26 08:24:31;;;;;;;103.80;58.72;;;-0.50;99.90;;;;;;5001428;28;20105;-70
2022/01/26 08:27:01;;;;;;;106.82;55.85;;;-0.30;99.90;;;;;;5000989;28;20753;-71
2022/01/26 08:29:29;;;;;;;85.00;45.47;;;-0.20;99.90;;;;;;5004834;28;20041;-71
2022/01/26 08:31:55;;;;;;;88.07;44.25;;;-0.10;99.90;;;;;;4999677;28;20685;-70
2022/01/26 08:34:21;;;;;;;85.68;44.78;;;0.10;99.90;;;;;;5002170;28;20137;-70
2022/01/26 08:36:47;;;;;;;80.22;41.63;;;0.20;99.90;;;;;;4998913;28;20033;-70
2022/01/26 08:39:13;;;;;;;79.35;41.58;;;0.10;99.90;;;;;;5000942;28;20109;-71
2022/01/26 08:41:39;;;;;;;74.35;37.90;;;0.20;99.90;;;;;;4998500;28;20548;-70
2022/01/26 08:44:04;;;;;;;64.72;36.08;;;0.40;99.90;;;;;;5000627;28;20026;-70
2022/01/26 08:46:30;;;;;;;54.47;31.60;;;0.60;99.90;;;;;;4998033;28;20057;-70
2022/01/26 08:48:56;;;;;;;46.38;25.45;;;0.80;99.90;;;;;;5004623;28;20072;-70
2022/01/26 08:51:22;;;;;;;44.95;25.48;;;1.00;99.90;;;;;;4999837;28;20048;-69
2022/01/26 08:53:47;;;;;;;45.53;25.98;;;1.00;99.90;;;;;;5000462;28;20484;-70
2022/01/26 08:56:13;;;;;;;36.95;22.52;;;1.10;99.90;;;;;;4998128;28;20509;-69
2022/01/26 08:58:39;;;;;;;43.38;24.42;;;1.20;99.90;;;;;;5001044;28;20033;-70
2022/01/26 09:01:05;;;;;;;39.50;23.65;;;1.40;99.90;;;;;;5001935;28;20030;-69
2022/01/26 09:03:36;;;;;;;42.75;24.25;;;1.50;99.90;;;;;;4999717;28;20042;-69
2022/01/26 09:06:02;;;;;;;36.65;22.60;;;1.70;99.90;;;;;;4999486;28;20034;-69
2022/01/26 09:08:27;;;;;;;38.20;23.05;;;1.90;99.90;;;;;;4998492;28;20041;-69
2022/01/26 09:10:58;;;;;;;43.35;24.52;;;2.10;99.90;;;;;;4994895;28;20092;-69
2022/01/26 09:13:25;;;;;;;40.92;28.08;;;2.20;99.90;;;;;;4993840;28;20405;-67
2022/01/26 09:15:50;;;;;;;41.20;24.10;;;2.20;99.90;;;;;;5002017;28;20029;-70
2022/01/26 09:18:20;;;;;;;44.95;22.60;;;2.40;99.90;;;;;;4997844;28;20040;-69
2022/01/26 09:20:46;;;;;;;40.53;25.10;;;2.60;99.90;;;;;;4997382;28;20065;-70
2022/01/26 09:23:12;;;;;;;35.03;22.95;;;2.70;99.90;;;;;;4998178;28;20465;-70
2022/01/26 09:25:37;;;;;;;37.50;24.00;;;2.90;99.90;;;;;;5000480;28;20168;-70
2022/01/26 09:28:03;;;;;;;42.67;26.20;;;3.00;99.90;;;;;;4999869;28;20034;-70
2022/01/26 09:30:29;;;;;;;78.43;47.53;;;3.10;99.90;;;;;;5000562;28;20030;-72
2022/01/26 09:32:54;;;;;;;55.40;34.55;;;3.30;99.90;;;;;;4996853;28;20550;-70
2022/01/26 09:35:20;;;;;;;49.05;30.17;;;3.40;99.90;;;;;;5000497;28;20503;-70
2022/01/26 09:37:46;;;;;;;33.95;23.27;;;3.50;99.90;;;;;;4997951;28;20416;-70
2022/01/26 09:40:11;;;;;;;23.38;15.23;;;3.70;99.90;;;;;;4998780;28;20674;-70
2022/01/26 09:42:37;;;;;;;17.83;11.20;;;3.70;99.90;;;;;;4999270;28;20095;-70
2022/01/26 09:45:06;;;;;;;16.80;11.07;;;3.70;99.90;;;;;;4997780;28;20092;-70
2022/01/26 09:47:32;;;;;;;17.75;11.40;;;3.80;99.90;;;;;;4999183;28;20407;-70
2022/01/26 09:49:57;;;;;;;15.38;10.45;;;3.90;99.90;;;;;;5000724;28;20031;-70
2022/01/26 09:52:33;;;;;;;13.73;9.20;;;4.00;99.90;;;;;;5002768;28;20034;-70
2022/01/26 09:55:00;;;;;;;8.68;5.55;;;4.10;99.90;;;;;;5000435;28;20030;-65
2022/01/26 09:57:27;;;;;;;5.95;4.50;;;4.30;99.90;;;;;;4997131;28;20034;-71
2022/01/26 09:59:53;;;;;;;6.18;4.43;;;4.50;99.90;;;;;;5002519;28;20029;-71
2022/01/26 10:02:25;;;;;;;6.65;4.82;;;4.60;99.90;;;;;;4998520;28;20655;-70
2022/01/26 10:05:06;;;;;;;5.68;4.53;;;4.70;99.60;;;;;;5003514;28;20023;-71
2022/01/26 10:15:34;;;;;;;7.85;5.22;;;4.80;99.10;;;;;;5001438;28;20060;-71
2022/01/26 10:18:12;;;;;;;5.93;4.85;;;4.70;98.80;;;;;;5002681;28;20029;-72
2022/01/26 10:20:39;;;;;;;7.00;5.07;;;4.80;98.90;;;;;;5002223;28;20045;-72
2022/01/26 10:23:07;;;;;;;6.38;4.47;;;4.90;98.60;;;;;;5002641;28;20013;-71
2022/01/26 10:25:33;;;;;;;5.82;4.68;;;4.70;98.40;;;;;;4995635;28;20025;-71
2022/01/26 10:27:59;;;;;;;6.18;4.60;;;4.80;98.70;;;;;;5000771;28;20041;-72
2022/01/26 10:30:25;;;;;;;5.05;4.47;;;4.90;98.50;;;;;;5001377;28;20152;-72
2022/01/26 10:32:50;;;;;;;5.95;4.00;;;4.80;97.90;;;;;;5001203;28;20109;-71
2022/01/26 10:35:17;;;;;;;6.78;5.07;;;4.70;98.20;;;;;;5004262;28;20030;-72
2022/01/26 10:37:55;;;;;;;7.65;5.00;;;4.60;98.40;;;;;;5004445;28;20030;-72
2022/01/26 10:40:25;;;;;;;6.40;4.82;;;4.50;98.70;;;;;;5001800;28;20502;-72
2022/01/26 10:43:13;;;;;;;6.30;4.60;;;4.60;98.70;;;;;;5004038;28;20417;-72
2022/01/26 10:46:05;;;;;;;5.93;4.93;;;4.60;98.70;;;;;;5004613;28;20093;-72
2022/01/26 10:53:46;;;;;;;6.65;4.97;;;4.70;98.80;;;;;;5003955;28;20041;-72
2022/01/26 10:56:13;;;;;;;5.28;4.60;;;4.90;98.50;;;;;;5004137;28;20053;-72
2022/01/26 10:58:40;;;;;;;6.30;4.60;;;4.90;98.20;;;;;;5005813;28;20045;-73
2022/01/26 11:01:05;;;;;;;6.57;5.32;;;4.80;98.20;;;;;;5000512;28;20161;-72
2022/01/26 11:03:32;;;;;;;6.25;4.78;;;4.80;98.20;;;;;;5001447;28;20600;-72
2022/01/26 11:05:58;;;;;;;4.95;4.00;;;4.90;98.30;;;;;;5004312;28;20109;-72
2022/01/26 11:08:25;;;;;;;5.47;4.65;;;5.00;98.10;;;;;;5005024;28;20404;-72
2022/01/26 11:10:51;;;;;;;4.85;4.07;;;5.10;97.70;;;;;;5002123;28;20426;-73
2022/01/26 11:13:37;;;;;;;5.20;4.68;;;5.20;97.20;;;;;;5003066;28;20539;-72
2022/01/26 11:16:10;;;;;;;6.03;4.00;;;5.20;96.80;;;;;;5004255;28;20030;-73
2022/01/26 11:18:49;;;;;;;5.55;3.70;;;5.30;96.30;;;;;;5005645;28;20034;-73
2022/01/26 11:21:25;;;;;;;5.40;3.83;;;5.30;96.40;;;;;;5002639;28;20038;-70
2022/01/26 11:23:52;;;;;;;4.65;3.53;;;5.30;95.60;;;;;;5006628;28;20034;-69
2022/01/26 11:26:23;;;;;;;4.90;4.40;;;5.40;95.80;;;;;;5002510;28;20041;-70
2022/01/26 11:28:49;;;;;;;5.93;5.00;;;5.40;96.10;;;;;;5003835;28;20064;-70
2022/01/26 11:31:17;;;;;;;6.60;4.78;;;5.50;96.30;;;;;;5001257;28;20058;-71
2022/01/26 11:33:48;;;;;;;6.10;4.82;;;5.50;95.90;;;;;;5002852;28;20512;-70
2022/01/26 11:36:17;;;;;;;6.00;4.50;;;5.50;96.20;;;;;;5004718;28;20044;-70
2022/01/26 11:47:30;;;;;;;6.88;5.20;;;5.40;96.80;;;;;;5002655;28;20089;-70
2022/01/26 11:50:29;;;;;;;5.70;4.70;;;5.40;96.70;;;;;;5006226;28;20052;-70
2022/01/26 11:53:16;;;;;;;5.68;4.30;;;5.40;96.80;;;;;;4978855;28;20042;-70
2022/01/26 11:55:53;;;;;;;5.10;4.35;;;5.30;96.20;;;;;;5000838;28;20045;-70
2022/01/26 11:58:35;;;;;;;5.85;4.53;;;5.40;96.40;;;;;;5003712;28;20077;-70
2022/01/26 12:03:43;;;;;;;5.78;4.60;;;5.50;95.80;;;;;;5002831;28;20041;-70
2022/01/26 12:06:17;;;;;;;5.45;4.50;;;5.60;96.20;;;;;;5002575;28;20038;-70
2022/01/26 12:08:42;;;;;;;5.65;4.50;;;5.60;95.70;;;;;;5003536;28;20125;-70
2022/01/26 12:11:11;;;;;;;5.57;4.55;;;5.60;95.90;;;;;;5004029;28;20117;-70
2022/01/26 12:13:39;;;;;;;5.63;4.70;;;5.40;96.10;;;;;;5002722;28;20370;-71
2022/01/26 12:16:14;;;;;;;5.53;4.25;;;5.50;96.80;;;;;;4998048;28;20080;-73
2022/01/26 12:18:55;;;;;;;5.30;4.57;;;5.50;96.50;;;;;;4997444;28;20033;-74
2022/01/26 12:43:44;;;;;;;13.95;9.98;;;6.20;95.00;;;;;;4999238;28;20049;-71
2022/01/26 12:46:18;;;;;;;19.10;13.48;;;6.40;94.80;;;;;;4996366;28;20041;-71
2022/01/26 12:48:59;;;;;;;4.55;3.85;;;6.50;94.40;;;;;;4997253;28;20133;-71
2022/01/26 12:51:28;;;;;;;4.00;3.60;;;6.50;93.00;;;;;;4998927;28;20085;-71
2022/01/26 12:53:57;;;;;;;26.02;19.35;;;6.60;92.90;;;;;;5000828;28;20030;-72
2022/01/26 12:56:28;;;;;;;5.55;4.90;;;6.60;92.40;;;;;;5001438;28;20076;-71
2022/01/26 12:59:00;;;;;;;6.30;4.63;;;6.70;93.10;;;;;;5000983;28;20440;-71
2022/01/26 13:01:26;;;;;;;4.30;3.40;;;6.70;93.20;;;;;;4999254;28;20026;-70
2022/01/26 13:03:57;;;;;;;5.78;3.75;;;6.70;92.20;;;;;;5001332;28;20032;-71
2022/01/26 13:06:28;;;;;;;6.10;4.85;;;6.70;92.60;;;;;;5002778;28;20512;-72
2022/01/26 13:08:56;;;;;;;4.80;3.95;;;6.70;93.00;;;;;;4997844;28;20050;-72
2022/01/26 13:11:24;;;;;;;4.07;3.58;;;6.80;92.40;;;;;;5000356;28;20694;-72
2022/01/26 13:14:01;;;;;;;4.78;3.67;;;6.80;92.00;;;;;;5001114;28;20049;-69
2022/01/26 13:16:34;;;;;;;4.78;4.15;;;6.70;91.80;;;;;;5001828;28;20052;-73
2022/01/26 13:19:53;;;;;;;5.72;4.65;;;6.60;92.50;;;;;;4996258;28;20038;-72
2022/01/26 13:30:09;;;;;;;4.30;3.90;;;6.50;93.00;;;;;;5004946;28;20036;-72
2022/01/26 13:33:01;;;;;;;5.13;3.80;;;6.50;92.60;;;;;;5008164;28;20065;-72
2022/01/26 13:46:26;;;;;;;4.75;4.00;;;6.60;92.10;;;;;;5001441;28;20042;-71
2022/01/26 13:51:18;;;;;;;8.23;4.90;;;6.80;92.00;;;;;;5003316;28;20542;-72
2022/01/26 13:53:51;;;;;;;5.10;4.45;;;7.10;91.30;;;;;;5001664;28;20056;-73
2022/01/26 13:56:52;;;;;;;6.35;4.78;;;7.30;91.30;;;;;;5001276;28;20068;-73
2022/01/26 14:01:42;;;;;;;5.63;4.22;;;8.30;86.30;;;;;;5001475;28;20038;-74
2022/01/26 14:04:08;;;;;;;4.65;3.70;;;8.80;85.50;;;;;;5002285;28;20468;-73
2022/01/26 14:06:34;;;;;;;7.53;5.70;;;9.70;83.50;;;;;;5005757;28;20030;-73
2022/01/26 14:08:59;;;;;;;3.85;3.30;;;10.60;79.10;;;;;;5004918;28;20495;-72
2022/01/26 14:11:26;;;;;;;9.57;8.60;;;11.20;72.50;;;;;;5003390;28;20752;-73
2022/01/26 14:13:55;;;;;;;4.78;4.28;;;12.00;69.70;;;;;;5001796;28;20121;-73
2022/01/26 14:16:22;;;;;;;3.97;3.58;;;13.40;64.40;;;;;;5003587;28;20077;-75
2022/01/26 14:19:03;;;;;;;3.78;3.47;;;14.00;58.80;;;;;;5004514;28;20029;-76
2022/01/26 14:26:44;;;;;;;4.47;4.07;;;13.50;57.90;;;;;;5003120;28;20419;-72
2022/01/26 14:54:11;;;;;;;29.48;26.38;;;11.00;83.80;;;;;;5000946;28;20069;-72
2022/01/26 15:31:48;;;;;;;21.83;16.35;;;7.40;82.60;;;;;;5001851;28;20140;-70
2022/01/26 15:34:08;;;;;;;21.50;15.50;;;7.30;83.30;;;;;;4997898;28;20026;-69
2022/01/26 15:42:34;;;;;;;31.63;22.55;;;7.00;85.30;;;;;;5002915;28;20392;-70
2022/01/26 15:50:38;;;;;;;12.23;10.65;;;6.80;86.80;;;;;;4999861;28;21194;-71
2022/01/26 15:53:20;;;;;;;13.50;9.32;;;6.70;87.20;;;;;;4999201;28;20085;-69
2022/01/26 17:46:48;;;;;;;54.78;37.92;;;4.60;94.40;;;;;;4997247;28;20618;-72
2022/01/26 18:16:25;;;;;;;96.05;52.72;;;4.70;93.90;;;;;;5002722;28;20034;-73
2022/01/26 18:31:47;;;;;;;38.58;23.92;;;4.70;93.90;;;;;;5002511;28;20463;-73
2022/01/26 18:32:45;;;;;;;34.83;22.13;;;4.70;93.90;;;;;;5000656;28;20669;-73
2022/01/26 18:46:21;;;;;;;29.75;19.83;;;4.50;93.80;;;;;;5000706;28;20087;-72
2022/01/26 18:52:01;;;;;;;31.20;21.45;;;4.30;93.80;;;;;;5006320;28;20088;-72
2022/01/26 18:54:33;;;;;;;38.55;25.77;;;4.30;93.90;;;;;;5001226;28;20059;-72
2022/01/26 18:57:00;;;;;;;44.63;28.38;;;4.20;94.00;;;;;;5007224;28;20053;-71
2022/01/26 18:59:27;;;;;;;47.30;30.75;;;4.10;94.00;;;;;;5005571;28;20058;-72
2022/01/26 19:01:55;;;;;;;45.90;30.33;;;3.90;94.70;;;;;;5002991;28;20030;-72
2022/01/26 19:04:29;;;;;;;73.57;43.42;;;3.80;95.00;;;;;;5002499;28;20058;-72
2022/01/26 19:06:57;;;;;;;38.47;23.33;;;3.90;95.00;;;;;;5000356;28;20077;-72
2022/01/26 19:09:26;;;;;;;42.45;26.35;;;4.00;94.60;;;;;;5006402;28;20072;-72
2022/01/26 19:11:52;;;;;;;18.63;12.38;;;3.90;94.30;;;;;;5001091;28;20083;-72
2022/01/26 19:14:22;;;;;;;11.05;7.75;;;3.70;94.30;;;;;;5003976;28;20484;-71
2022/01/26 19:17:33;;;;;;;25.23;16.02;;;3.30;95.50;;;;;;5003186;28;20058;-72
2022/01/26 19:27:01;;;;;;;10.95;7.47;;;3.30;96.10;;;;;;5003566;28;20050;-72
2022/01/26 19:32:34;;;;;;;9.80;7.28;;;3.10;97.10;;;;;;5001575;28;20044;-71
2022/01/26 19:51:13;;;;;;;19.38;13.75;;;4.00;95.40;;;;;;5000880;28;20037;-72
2022/01/26 19:53:39;;;;;;;22.25;15.05;;;3.90;95.20;;;;;;5005863;28;20034;-71
2022/01/26 19:56:05;;;;;;;50.90;28.95;;;3.90;94.90;;;;;;5002181;28;20054;-71
2022/01/26 19:58:31;;;;;;;38.90;23.83;;;3.90;94.90;;;;;;5001946;28;20065;-71
2022/01/26 20:00:57;;;;;;;42.95;25.27;;;3.80;95.20;;;;;;5002719;28;20133;-71
2022/01/26 20:03:23;;;;;;;64.50;35.33;;;3.80;95.10;;;;;;4999922;28;20044;-72
2022/01/26 20:05:53;;;;;;;71.32;40.25;;;3.70;95.30;;;;;;5000160;28;20034;-71
2022/01/26 20:11:09;;;;;;;70.20;43.22;;;3.70;95.40;;;;;;5002022;28;20026;-72